sensor_id;sensor_type;location;lat;lon;timestamp;P1;durP1;ratioP1;P2;durP2;ratioP2
15240;SDS011;7723;52.170;9.978;2023-02-01T00:02:26;10.13;;;2.53;;
15240;SDS011;7723;52.170;9.978;2023-02-01T00:04:54;11.87;;;3.07;;
15240;SDS011;7723;52.170;9.978;2023-02-01T00:07:21;19.00;;;3.07;;
15240;SDS011;7723;52.170;9.978;2023-02-01T00:09:48;8.05;;;2.38;;
15240;SDS011;7723;52.170;9.978;2023-02-01T00:12:16;9.57;;;2.53;;
15240;SDS011;7723;52.170;9.978;2023-02-01T00:14:43;8.70;;;3.00;;
15240;SDS011;7723;52.170;9.978;2023-02-01T00:17:10;9.80;;;2.50;;
15240;SDS011;7723;52.170;9.978;2023-02-01T00:19:37;14.13;;;3.33;;
15240;SDS011;7723;52.170;9.978;2023-02-01T00:22:06;11.70;;;2.63;;
15240;SDS011;7723;52.170;9.978;2023-02-01T00:24:33;11.97;;;2.27;;
15240;SDS011;7723;52.170;9.978;2023-02-01T00:27:00;8.90;;;2.42;;
15240;SDS011;7723;52.170;9.978;2023-02-01T00:29:27;13.70;;;2.60;;
15240;SDS011;7723;52.170;9.978;2023-02-01T00:31:54;13.93;;;2.60;;
15240;SDS011;7723;52.170;9.978;2023-02-01T00:34:21;9.30;;;2.87;;
15240;SDS011;7723;52.170;9.978;2023-02-01T00:36:49;10.32;;;2.33;;
15240;SDS011;7723;52.170;9.978;2023-02-01T00:39:18;13.93;;;2.67;;
15240;SDS011;7723;52.170;9.978;2023-02-01T00:41:45;9.77;;;2.97;;
15240;SDS011;7723;52.170;9.978;2023-02-01T00:44:12;8.80;;;2.40;;
15240;SDS011;7723;52.170;9.978;2023-02-01T00:46:39;10.47;;;2.40;;
15240;SDS011;7723;52.170;9.978;2023-02-01T00:49:06;10.10;;;2.30;;
15240;SDS011;7723;52.170;9.978;2023-02-01T00:51:34;9.27;;;2.67;;
15240;SDS011;7723;52.170;9.978;2023-02-01T00:54:01;13.07;;;3.07;;
15240;SDS011;7723;52.170;9.978;2023-02-01T00:56:30;15.60;;;3.17;;
15240;SDS011;7723;52.170;9.978;2023-02-01T00:58:57;14.53;;;2.50;;
15240;SDS011;7723;52.170;9.978;2023-02-01T01:01:25;9.57;;;2.57;;
15240;SDS011;7723;52.170;9.978;2023-02-01T01:03:53;10.85;;;2.33;;
15240;SDS011;7723;52.170;9.978;2023-02-01T01:06:22;7.83;;;1.87;;
15240;SDS011;7723;52.170;9.978;2023-02-01T01:08:51;14.23;;;3.40;;
15240;SDS011;7723;52.170;9.978;2023-02-01T01:11:20;6.43;;;2.03;;
15240;SDS011;7723;52.170;9.978;2023-02-01T01:13:51;16.00;;;2.80;;
15240;SDS011;7723;52.170;9.978;2023-02-01T01:16:19;12.17;;;2.23;;
15240;SDS011;7723;52.170;9.978;2023-02-01T01:18:47;9.73;;;2.70;;
15240;SDS011;7723;52.170;9.978;2023-02-01T01:21:15;7.80;;;2.93;;
15240;SDS011;7723;52.170;9.978;2023-02-01T01:23:43;10.90;;;2.40;;
15240;SDS011;7723;52.170;9.978;2023-02-01T01:26:12;12.03;;;2.40;;
15240;SDS011;7723;52.170;9.978;2023-02-01T01:28:41;11.70;;;2.30;;
15240;SDS011;7723;52.170;9.978;2023-02-01T01:31:09;11.90;;;2.73;;
15240;SDS011;7723;52.170;9.978;2023-02-01T01:33:37;12.07;;;3.07;;
15240;SDS011;7723;52.170;9.978;2023-02-01T01:36:04;10.47;;;2.57;;
15240;SDS011;7723;52.170;9.978;2023-02-01T01:38:32;11.07;;;2.47;;
15240;SDS011;7723;52.170;9.978;2023-02-01T01:40:59;11.67;;;3.57;;
15240;SDS011;7723;52.170;9.978;2023-02-01T01:46:16;6.10;;;2.03;;
15240;SDS011;7723;52.170;9.978;2023-02-01T01:48:44;8.20;;;3.28;;
15240;SDS011;7723;52.170;9.978;2023-02-01T01:51:14;14.20;;;2.90;;
15240;SDS011;7723;52.170;9.978;2023-02-01T01:53:48;10.40;;;3.03;;
15240;SDS011;7723;52.170;9.978;2023-02-01T01:56:24;11.37;;;2.67;;
15240;SDS011;7723;52.170;9.978;2023-02-01T01:58:53;11.80;;;2.40;;
15240;SDS011;7723;52.170;9.978;2023-02-01T02:01:23;15.33;;;2.77;;
15240;SDS011;7723;52.170;9.978;2023-02-01T02:03:50;9.83;;;2.50;;
15240;SDS011;7723;52.170;9.978;2023-02-01T02:06:21;8.27;;;2.00;;
15240;SDS011;7723;52.170;9.978;2023-02-01T02:08:59;9.20;;;3.27;;
15240;SDS011;7723;52.170;9.978;2023-02-01T02:11:26;9.87;;;2.03;;
15240;SDS011;7723;52.170;9.978;2023-02-01T02:13:54;7.83;;;2.30;;
15240;SDS011;7723;52.170;9.978;2023-02-01T02:16:41;12.53;;;2.93;;
15240;SDS011;7723;52.170;9.978;2023-02-01T02:19:27;9.67;;;2.40;;
15240;SDS011;7723;52.170;9.978;2023-02-01T02:22:17;11.60;;;3.70;;
15240;SDS011;7723;52.170;9.978;2023-02-01T02:25:18;11.87;;;2.40;;
15240;SDS011;7723;52.170;9.978;2023-02-01T02:27:56;16.97;;;4.20;;
15240;SDS011;7723;52.170;9.978;2023-02-01T02:30:35;18.83;;;3.03;;
15240;SDS011;7723;52.170;9.978;2023-02-01T02:36:19;6.63;;;2.40;;
15240;SDS011;7723;52.170;9.978;2023-02-01T02:38:59;9.43;;;3.23;;
15240;SDS011;7723;52.170;9.978;2023-02-01T02:41:34;11.57;;;2.42;;
15240;SDS011;7723;52.170;9.978;2023-02-01T02:44:30;6.83;;;1.87;;
15240;SDS011;7723;52.170;9.978;2023-02-01T02:47:21;14.13;;;3.30;;
15240;SDS011;7723;52.170;9.978;2023-02-01T02:50:01;10.88;;;2.67;;
15240;SDS011;7723;52.170;9.978;2023-02-01T02:52:54;11.60;;;2.88;;
15240;SDS011;7723;52.170;9.978;2023-02-01T02:55:42;12.10;;;2.73;;
15240;SDS011;7723;52.170;9.978;2023-02-01T02:58:11;10.13;;;2.90;;
15240;SDS011;7723;52.170;9.978;2023-02-01T03:00:57;15.73;;;2.60;;
15240;SDS011;7723;52.170;9.978;2023-02-01T03:03:42;9.80;;;2.90;;
15240;SDS011;7723;52.170;9.978;2023-02-01T03:06:30;8.37;;;2.80;;
15240;SDS011;7723;52.170;9.978;2023-02-01T03:08:59;10.73;;;2.50;;
15240;SDS011;7723;52.170;9.978;2023-02-01T03:11:30;8.77;;;2.60;;
15240;SDS011;7723;52.170;9.978;2023-02-01T03:14:13;9.95;;;2.42;;
15240;SDS011;7723;52.170;9.978;2023-02-01T03:16:43;10.67;;;4.27;;
15240;SDS011;7723;52.170;9.978;2023-02-01T03:19:18;10.85;;;2.65;;
15240;SDS011;7723;52.170;9.978;2023-02-01T03:21:50;7.72;;;2.33;;
15240;SDS011;7723;52.170;9.978;2023-02-01T03:24:20;3.90;;;2.20;;
15240;SDS011;7723;52.170;9.978;2023-02-01T03:27:00;19.52;;;4.55;;
15240;SDS011;7723;52.170;9.978;2023-02-01T03:29:33;11.52;;;2.72;;
15240;SDS011;7723;52.170;9.978;2023-02-01T03:32:06;11.13;;;3.03;;
15240;SDS011;7723;52.170;9.978;2023-02-01T03:34:34;9.23;;;2.78;;
15240;SDS011;7723;52.170;9.978;2023-02-01T03:37:03;12.20;;;2.60;;
15240;SDS011;7723;52.170;9.978;2023-02-01T03:39:36;8.90;;;3.00;;
15240;SDS011;7723;52.170;9.978;2023-02-01T03:42:09;6.75;;;2.78;;
15240;SDS011;7723;52.170;9.978;2023-02-01T03:44:44;6.72;;;2.30;;
15240;SDS011;7723;52.170;9.978;2023-02-01T03:47:16;10.60;;;2.90;;
15240;SDS011;7723;52.170;9.978;2023-02-01T03:49:48;15.63;;;2.80;;
15240;SDS011;7723;52.170;9.978;2023-02-01T03:52:22;8.93;;;2.63;;
15240;SDS011;7723;52.170;9.978;2023-02-01T03:54:52;10.18;;;2.58;;
15240;SDS011;7723;52.170;9.978;2023-02-01T03:57:21;9.97;;;2.70;;
15240;SDS011;7723;52.170;9.978;2023-02-01T03:59:51;7.25;;;2.75;;
15240;SDS011;7723;52.170;9.978;2023-02-01T04:02:19;10.45;;;2.63;;
15240;SDS011;7723;52.170;9.978;2023-02-01T04:04:46;11.73;;;3.08;;
15240;SDS011;7723;52.170;9.978;2023-02-01T04:07:13;17.77;;;3.20;;
15240;SDS011;7723;52.170;9.978;2023-02-01T04:09:43;9.27;;;3.30;;
15240;SDS011;7723;52.170;9.978;2023-02-01T04:12:10;8.27;;;2.80;;
15240;SDS011;7723;52.170;9.978;2023-02-01T04:14:37;7.87;;;3.70;;
15240;SDS011;7723;52.170;9.978;2023-02-01T04:17:04;10.87;;;2.43;;
15240;SDS011;7723;52.170;9.978;2023-02-01T04:19:31;15.13;;;3.30;;
15240;SDS011;7723;52.170;9.978;2023-02-01T04:21:58;12.90;;;3.90;;
15240;SDS011;7723;52.170;9.978;2023-02-01T04:24:26;12.20;;;3.13;;
15240;SDS011;7723;52.170;9.978;2023-02-01T04:26:54;13.33;;;3.30;;
15240;SDS011;7723;52.170;9.978;2023-02-01T04:29:21;10.50;;;3.33;;
15240;SDS011;7723;52.170;9.978;2023-02-01T04:31:48;14.18;;;3.88;;
15240;SDS011;7723;52.170;9.978;2023-02-01T04:34:15;9.57;;;3.07;;
15240;SDS011;7723;52.170;9.978;2023-02-01T04:36:43;5.57;;;2.40;;
15240;SDS011;7723;52.170;9.978;2023-02-01T04:39:10;14.97;;;3.77;;
15240;SDS011;7723;52.170;9.978;2023-02-01T04:41:37;7.77;;;2.17;;
15240;SDS011;7723;52.170;9.978;2023-02-01T04:44:05;14.95;;;3.22;;
15240;SDS011;7723;52.170;9.978;2023-02-01T04:46:33;8.00;;;2.43;;
15240;SDS011;7723;52.170;9.978;2023-02-01T04:49:00;9.57;;;2.92;;
15240;SDS011;7723;52.170;9.978;2023-02-01T04:51:27;11.17;;;2.87;;
15240;SDS011;7723;52.170;9.978;2023-02-01T04:53:55;9.32;;;3.10;;
15240;SDS011;7723;52.170;9.978;2023-02-01T04:56:22;11.30;;;3.00;;
15240;SDS011;7723;52.170;9.978;2023-02-01T04:58:49;9.63;;;3.10;;
15240;SDS011;7723;52.170;9.978;2023-02-01T05:01:18;12.02;;;2.70;;
15240;SDS011;7723;52.170;9.978;2023-02-01T05:03:45;9.65;;;3.10;;
15240;SDS011;7723;52.170;9.978;2023-02-01T05:06:12;9.53;;;2.77;;
15240;SDS011;7723;52.170;9.978;2023-02-01T05:08:39;9.53;;;3.13;;
15240;SDS011;7723;52.170;9.978;2023-02-01T05:11:07;9.73;;;2.97;;
15240;SDS011;7723;52.170;9.978;2023-02-01T05:13:55;7.73;;;3.17;;
15240;SDS011;7723;52.170;9.978;2023-02-01T05:16:22;8.90;;;2.22;;
15240;SDS011;7723;52.170;9.978;2023-02-01T05:18:49;7.30;;;2.50;;
15240;SDS011;7723;52.170;9.978;2023-02-01T05:21:16;9.43;;;3.17;;
15240;SDS011;7723;52.170;9.978;2023-02-01T05:23:44;10.80;;;3.35;;
15240;SDS011;7723;52.170;9.978;2023-02-01T05:26:28;11.43;;;3.25;;
15240;SDS011;7723;52.170;9.978;2023-02-01T05:28:55;11.97;;;3.83;;
15240;SDS011;7723;52.170;9.978;2023-02-01T05:31:24;10.25;;;3.45;;
15240;SDS011;7723;52.170;9.978;2023-02-01T05:33:51;5.07;;;2.55;;
15240;SDS011;7723;52.170;9.978;2023-02-01T05:36:19;8.38;;;3.03;;
15240;SDS011;7723;52.170;9.978;2023-02-01T05:38:46;11.85;;;3.58;;
15240;SDS011;7723;52.170;9.978;2023-02-01T05:41:13;6.47;;;2.45;;
15240;SDS011;7723;52.170;9.978;2023-02-01T05:43:40;11.95;;;3.05;;
15240;SDS011;7723;52.170;9.978;2023-02-01T05:46:07;12.20;;;2.93;;
15240;SDS011;7723;52.170;9.978;2023-02-01T05:48:39;6.03;;;2.67;;
15240;SDS011;7723;52.170;9.978;2023-02-01T05:51:06;8.27;;;2.93;;
15240;SDS011;7723;52.170;9.978;2023-02-01T05:53:34;5.22;;;2.17;;
15240;SDS011;7723;52.170;9.978;2023-02-01T05:56:01;5.60;;;2.25;;
15240;SDS011;7723;52.170;9.978;2023-02-01T05:58:31;8.18;;;2.60;;
15240;SDS011;7723;52.170;9.978;2023-02-01T06:00:59;7.05;;;3.17;;
15240;SDS011;7723;52.170;9.978;2023-02-01T06:03:26;8.48;;;2.92;;
15240;SDS011;7723;52.170;9.978;2023-02-01T06:05:55;4.55;;;2.42;;
15240;SDS011;7723;52.170;9.978;2023-02-01T06:08:22;9.45;;;3.05;;
15240;SDS011;7723;52.170;9.978;2023-02-01T06:10:50;10.75;;;2.45;;
15240;SDS011;7723;52.170;9.978;2023-02-01T06:13:23;6.43;;;2.28;;
15240;SDS011;7723;52.170;9.978;2023-02-01T06:15:50;7.45;;;2.83;;
15240;SDS011;7723;52.170;9.978;2023-02-01T06:18:17;8.27;;;2.75;;
15240;SDS011;7723;52.170;9.978;2023-02-01T06:20:44;5.85;;;2.58;;
15240;SDS011;7723;52.170;9.978;2023-02-01T06:23:13;8.18;;;2.42;;
15240;SDS011;7723;52.170;9.978;2023-02-01T06:25:40;11.82;;;3.88;;
15240;SDS011;7723;52.170;9.978;2023-02-01T06:28:07;8.25;;;2.10;;
15240;SDS011;7723;52.170;9.978;2023-02-01T06:30:34;7.07;;;2.33;;
15240;SDS011;7723;52.170;9.978;2023-02-01T06:33:01;8.07;;;2.20;;
15240;SDS011;7723;52.170;9.978;2023-02-01T06:35:28;5.82;;;2.30;;
15240;SDS011;7723;52.170;9.978;2023-02-01T06:37:55;8.82;;;2.13;;
15240;SDS011;7723;52.170;9.978;2023-02-01T06:40:24;10.75;;;3.17;;
15240;SDS011;7723;52.170;9.978;2023-02-01T06:42:51;7.32;;;2.08;;
15240;SDS011;7723;52.170;9.978;2023-02-01T06:45:18;8.30;;;2.50;;
15240;SDS011;7723;52.170;9.978;2023-02-01T06:47:45;6.90;;;2.50;;
15240;SDS011;7723;52.170;9.978;2023-02-01T06:50:13;6.85;;;2.28;;
15240;SDS011;7723;52.170;9.978;2023-02-01T06:52:40;7.60;;;2.33;;
15240;SDS011;7723;52.170;9.978;2023-02-01T06:55:07;4.40;;;2.42;;
15240;SDS011;7723;52.170;9.978;2023-02-01T06:57:36;7.55;;;2.28;;
15240;SDS011;7723;52.170;9.978;2023-02-01T07:00:04;7.80;;;2.00;;
15240;SDS011;7723;52.170;9.978;2023-02-01T07:02:35;4.15;;;1.90;;
15240;SDS011;7723;52.170;9.978;2023-02-01T07:05:03;4.70;;;2.40;;
15240;SDS011;7723;52.170;9.978;2023-02-01T07:07:30;14.13;;;3.27;;
15240;SDS011;7723;52.170;9.978;2023-02-01T07:09:57;9.60;;;2.83;;
15240;SDS011;7723;52.170;9.978;2023-02-01T07:12:24;7.43;;;2.42;;
15240;SDS011;7723;52.170;9.978;2023-02-01T07:14:53;24.53;;;3.50;;
15240;SDS011;7723;52.170;9.978;2023-02-01T07:17:21;10.67;;;2.30;;
15240;SDS011;7723;52.170;9.978;2023-02-01T07:19:48;5.10;;;2.40;;
15240;SDS011;7723;52.170;9.978;2023-02-01T07:22:16;8.73;;;2.35;;
15240;SDS011;7723;52.170;9.978;2023-02-01T07:24:43;7.47;;;2.60;;
15240;SDS011;7723;52.170;9.978;2023-02-01T07:27:10;7.07;;;2.20;;
15240;SDS011;7723;52.170;9.978;2023-02-01T07:29:37;9.45;;;2.78;;
15240;SDS011;7723;52.170;9.978;2023-02-01T07:32:06;10.13;;;2.22;;
15240;SDS011;7723;52.170;9.978;2023-02-01T07:34:33;5.72;;;2.15;;
15240;SDS011;7723;52.170;9.978;2023-02-01T07:37:00;9.18;;;2.72;;
15240;SDS011;7723;52.170;9.978;2023-02-01T07:39:28;11.53;;;2.27;;
15240;SDS011;7723;52.170;9.978;2023-02-01T07:41:57;9.53;;;2.47;;
15240;SDS011;7723;52.170;9.978;2023-02-01T07:44:24;4.33;;;2.00;;
15240;SDS011;7723;52.170;9.978;2023-02-01T07:46:51;9.23;;;2.53;;
15240;SDS011;7723;52.170;9.978;2023-02-01T07:49:20;6.20;;;1.93;;
15240;SDS011;7723;52.170;9.978;2023-02-01T07:51:47;10.88;;;3.05;;
15240;SDS011;7723;52.170;9.978;2023-02-01T07:54:14;8.70;;;2.40;;
15240;SDS011;7723;52.170;9.978;2023-02-01T07:56:41;14.98;;;3.20;;
15240;SDS011;7723;52.170;9.978;2023-02-01T07:59:08;8.57;;;2.38;;
15240;SDS011;7723;52.170;9.978;2023-02-01T08:01:36;6.40;;;2.70;;
15240;SDS011;7723;52.170;9.978;2023-02-01T08:04:03;11.45;;;3.90;;
15240;SDS011;7723;52.170;9.978;2023-02-01T08:06:32;8.00;;;2.75;;
15240;SDS011;7723;52.170;9.978;2023-02-01T08:09:00;13.07;;;3.42;;
15240;SDS011;7723;52.170;9.978;2023-02-01T08:11:27;6.03;;;2.35;;
15240;SDS011;7723;52.170;9.978;2023-02-01T08:13:55;12.35;;;2.10;;
15240;SDS011;7723;52.170;9.978;2023-02-01T08:16:22;9.07;;;2.45;;
15240;SDS011;7723;52.170;9.978;2023-02-01T08:18:50;11.98;;;3.22;;
15240;SDS011;7723;52.170;9.978;2023-02-01T08:21:18;6.35;;;2.80;;
15240;SDS011;7723;52.170;9.978;2023-02-01T08:23:49;9.50;;;3.13;;
15240;SDS011;7723;52.170;9.978;2023-02-01T08:26:17;5.90;;;2.60;;
15240;SDS011;7723;52.170;9.978;2023-02-01T08:28:47;10.85;;;2.38;;
15240;SDS011;7723;52.170;9.978;2023-02-01T08:31:16;5.05;;;2.08;;
15240;SDS011;7723;52.170;9.978;2023-02-01T08:33:48;10.25;;;3.45;;
15240;SDS011;7723;52.170;9.978;2023-02-01T08:36:17;8.18;;;2.22;;
15240;SDS011;7723;52.170;9.978;2023-02-01T08:38:45;5.20;;;2.00;;
15240;SDS011;7723;52.170;9.978;2023-02-01T08:41:14;8.88;;;2.47;;
15240;SDS011;7723;52.170;9.978;2023-02-01T08:43:42;6.60;;;2.95;;
15240;SDS011;7723;52.170;9.978;2023-02-01T08:46:10;8.05;;;2.60;;
15240;SDS011;7723;52.170;9.978;2023-02-01T08:48:37;7.20;;;2.08;;
15240;SDS011;7723;52.170;9.978;2023-02-01T08:51:05;6.07;;;1.70;;
15240;SDS011;7723;52.170;9.978;2023-02-01T08:53:33;5.03;;;1.42;;
15240;SDS011;7723;52.170;9.978;2023-02-01T08:56:01;13.18;;;3.15;;
15240;SDS011;7723;52.170;9.978;2023-02-01T08:58:29;5.30;;;1.73;;
15240;SDS011;7723;52.170;9.978;2023-02-01T09:00:57;6.05;;;2.20;;
15240;SDS011;7723;52.170;9.978;2023-02-01T09:03:28;11.57;;;2.60;;
15240;SDS011;7723;52.170;9.978;2023-02-01T09:05:59;12.80;;;2.35;;
15240;SDS011;7723;52.170;9.978;2023-02-01T09:08:26;5.22;;;2.47;;
15240;SDS011;7723;52.170;9.978;2023-02-01T09:10:57;4.78;;;2.25;;
15240;SDS011;7723;52.170;9.978;2023-02-01T09:13:25;9.35;;;2.40;;
15240;SDS011;7723;52.170;9.978;2023-02-01T09:15:53;9.52;;;2.42;;
15240;SDS011;7723;52.170;9.978;2023-02-01T09:18:20;7.30;;;2.40;;
15240;SDS011;7723;52.170;9.978;2023-02-01T09:20:47;10.02;;;2.55;;
15240;SDS011;7723;52.170;9.978;2023-02-01T09:23:15;6.57;;;2.05;;
15240;SDS011;7723;52.170;9.978;2023-02-01T09:25:42;7.18;;;2.42;;
15240;SDS011;7723;52.170;9.978;2023-02-01T09:28:10;4.72;;;1.58;;
15240;SDS011;7723;52.170;9.978;2023-02-01T09:30:37;8.43;;;1.80;;
15240;SDS011;7723;52.170;9.978;2023-02-01T09:33:06;9.32;;;2.70;;
15240;SDS011;7723;52.170;9.978;2023-02-01T09:35:33;4.20;;;1.58;;
15240;SDS011;7723;52.170;9.978;2023-02-01T09:38:00;9.82;;;1.90;;
15240;SDS011;7723;52.170;9.978;2023-02-01T09:40:27;8.88;;;2.20;;
15240;SDS011;7723;52.170;9.978;2023-02-01T09:43:00;6.50;;;2.20;;
15240;SDS011;7723;52.170;9.978;2023-02-01T09:45:40;10.23;;;2.40;;
15240;SDS011;7723;52.170;9.978;2023-02-01T09:48:16;5.70;;;2.17;;
15240;SDS011;7723;52.170;9.978;2023-02-01T09:50:48;8.98;;;2.40;;
15240;SDS011;7723;52.170;9.978;2023-02-01T09:53:20;8.15;;;1.88;;
15240;SDS011;7723;52.170;9.978;2023-02-01T09:55:53;7.82;;;1.90;;
15240;SDS011;7723;52.170;9.978;2023-02-01T09:58:25;5.95;;;2.22;;
15240;SDS011;7723;52.170;9.978;2023-02-01T10:00:58;6.80;;;2.22;;
15240;SDS011;7723;52.170;9.978;2023-02-01T10:03:29;8.18;;;2.10;;
15240;SDS011;7723;52.170;9.978;2023-02-01T10:06:03;9.98;;;2.45;;
15240;SDS011;7723;52.170;9.978;2023-02-01T10:08:44;5.88;;;2.22;;
15240;SDS011;7723;52.170;9.978;2023-02-01T10:11:27;6.05;;;1.85;;
15240;SDS011;7723;52.170;9.978;2023-02-01T10:14:14;6.97;;;1.98;;
15240;SDS011;7723;52.170;9.978;2023-02-01T10:16:55;6.35;;;1.80;;
15240;SDS011;7723;52.170;9.978;2023-02-01T10:19:32;13.25;;;2.28;;
15240;SDS011;7723;52.170;9.978;2023-02-01T10:22:06;8.88;;;2.33;;
15240;SDS011;7723;52.170;9.978;2023-02-01T10:24:37;5.13;;;1.85;;
15240;SDS011;7723;52.170;9.978;2023-02-01T10:27:11;8.25;;;2.10;;
15240;SDS011;7723;52.170;9.978;2023-02-01T10:29:41;10.38;;;2.33;;
15240;SDS011;7723;52.170;9.978;2023-02-01T10:32:12;7.22;;;2.25;;
15240;SDS011;7723;52.170;9.978;2023-02-01T10:34:42;8.80;;;2.20;;
15240;SDS011;7723;52.170;9.978;2023-02-01T10:37:16;6.85;;;2.58;;
15240;SDS011;7723;52.170;9.978;2023-02-01T10:39:49;5.72;;;2.63;;
15240;SDS011;7723;52.170;9.978;2023-02-01T10:42:21;8.10;;;2.08;;
15240;SDS011;7723;52.170;9.978;2023-02-01T10:44:52;5.28;;;1.50;;
15240;SDS011;7723;52.170;9.978;2023-02-01T10:47:21;5.90;;;2.13;;
15240;SDS011;7723;52.170;9.978;2023-02-01T10:49:52;12.23;;;3.25;;
15240;SDS011;7723;52.170;9.978;2023-02-01T10:52:26;8.32;;;2.30;;
15240;SDS011;7723;52.170;9.978;2023-02-01T10:57:58;5.60;;;1.92;;
15240;SDS011;7723;52.170;9.978;2023-02-01T11:00:27;4.60;;;2.25;;
15240;SDS011;7723;52.170;9.978;2023-02-01T11:03:00;9.27;;;2.30;;
15240;SDS011;7723;52.170;9.978;2023-02-01T11:05:46;14.07;;;2.30;;
15240;SDS011;7723;52.170;9.978;2023-02-01T11:08:15;8.02;;;2.13;;
15240;SDS011;7723;52.170;9.978;2023-02-01T11:10:45;11.13;;;2.10;;
15240;SDS011;7723;52.170;9.978;2023-02-01T11:13:13;5.05;;;1.80;;
15240;SDS011;7723;52.170;9.978;2023-02-01T11:15:45;10.85;;;2.20;;
15240;SDS011;7723;52.170;9.978;2023-02-01T11:18:15;11.55;;;2.25;;
15240;SDS011;7723;52.170;9.978;2023-02-01T11:20:44;10.02;;;2.17;;
15240;SDS011;7723;52.170;9.978;2023-02-01T11:23:17;4.18;;;1.67;;
15240;SDS011;7723;52.170;9.978;2023-02-01T11:25:48;5.13;;;1.35;;
15240;SDS011;7723;52.170;9.978;2023-02-01T11:28:17;7.18;;;2.42;;
15240;SDS011;7723;52.170;9.978;2023-02-01T11:30:47;6.13;;;2.10;;
15240;SDS011;7723;52.170;9.978;2023-02-01T11:33:15;3.88;;;1.92;;
15240;SDS011;7723;52.170;9.978;2023-02-01T11:35:45;4.00;;;2.10;;
15240;SDS011;7723;52.170;9.978;2023-02-01T11:38:19;4.72;;;1.73;;
15240;SDS011;7723;52.170;9.978;2023-02-01T11:40:49;8.23;;;2.00;;
15240;SDS011;7723;52.170;9.978;2023-02-01T11:43:17;7.15;;;2.20;;
15240;SDS011;7723;52.170;9.978;2023-02-01T11:45:53;8.57;;;1.85;;
15240;SDS011;7723;52.170;9.978;2023-02-01T11:48:22;19.73;;;2.53;;
15240;SDS011;7723;52.170;9.978;2023-02-01T11:50:54;6.35;;;1.52;;
15240;SDS011;7723;52.170;9.978;2023-02-01T11:53:55;5.75;;;1.60;;
15240;SDS011;7723;52.170;9.978;2023-02-01T11:56:33;8.10;;;2.60;;
15240;SDS011;7723;52.170;9.978;2023-02-01T11:59:12;6.50;;;1.80;;
15240;SDS011;7723;52.170;9.978;2023-02-01T12:01:56;6.05;;;1.55;;
15240;SDS011;7723;52.170;9.978;2023-02-01T12:04:45;3.65;;;1.50;;
15240;SDS011;7723;52.170;9.978;2023-02-01T12:07:37;4.25;;;1.23;;
15240;SDS011;7723;52.170;9.978;2023-02-01T12:10:18;5.22;;;1.73;;
15240;SDS011;7723;52.170;9.978;2023-02-01T12:12:58;11.68;;;2.15;;
15240;SDS011;7723;52.170;9.978;2023-02-01T12:15:40;11.45;;;3.35;;
15240;SDS011;7723;52.170;9.978;2023-02-01T12:18:21;7.50;;;2.40;;
15240;SDS011;7723;52.170;9.978;2023-02-01T12:21:06;4.03;;;1.80;;
15240;SDS011;7723;52.170;9.978;2023-02-01T12:23:57;5.15;;;2.38;;
15240;SDS011;7723;52.170;9.978;2023-02-01T12:26:44;7.43;;;2.28;;
15240;SDS011;7723;52.170;9.978;2023-02-01T12:29:25;4.65;;;1.65;;
15240;SDS011;7723;52.170;9.978;2023-02-01T12:32:09;4.78;;;2.05;;
15240;SDS011;7723;52.170;9.978;2023-02-01T12:34:49;7.07;;;1.90;;
15240;SDS011;7723;52.170;9.978;2023-02-01T12:37:37;7.28;;;1.42;;
15240;SDS011;7723;52.170;9.978;2023-02-01T12:40:25;4.07;;;1.70;;
15240;SDS011;7723;52.170;9.978;2023-02-01T12:43:04;6.82;;;2.15;;
15240;SDS011;7723;52.170;9.978;2023-02-01T12:45:40;5.40;;;1.55;;
15240;SDS011;7723;52.170;9.978;2023-02-01T12:48:18;7.90;;;2.47;;
15240;SDS011;7723;52.170;9.978;2023-02-01T12:50:58;5.57;;;1.80;;
15240;SDS011;7723;52.170;9.978;2023-02-01T12:53:30;5.00;;;1.63;;
15240;SDS011;7723;52.170;9.978;2023-02-01T12:56:06;4.85;;;1.95;;
15240;SDS011;7723;52.170;9.978;2023-02-01T12:58:39;5.70;;;2.20;;
15240;SDS011;7723;52.170;9.978;2023-02-01T13:01:11;6.05;;;2.47;;
15240;SDS011;7723;52.170;9.978;2023-02-01T13:03:44;5.70;;;2.03;;
15240;SDS011;7723;52.170;9.978;2023-02-01T13:06:22;6.88;;;1.90;;
15240;SDS011;7723;52.170;9.978;2023-02-01T13:08:53;7.18;;;2.28;;
15240;SDS011;7723;52.170;9.978;2023-02-01T13:11:29;6.43;;;1.80;;
15240;SDS011;7723;52.170;9.978;2023-02-01T13:13:59;5.45;;;2.05;;
15240;SDS011;7723;52.170;9.978;2023-02-01T13:16:30;8.35;;;2.75;;
15240;SDS011;7723;52.170;9.978;2023-02-01T13:19:02;3.35;;;1.40;;
15240;SDS011;7723;52.170;9.978;2023-02-01T13:21:36;2.58;;;1.42;;
15240;SDS011;7723;52.170;9.978;2023-02-01T13:24:10;6.40;;;1.80;;
15240;SDS011;7723;52.170;9.978;2023-02-01T13:26:54;4.90;;;1.70;;
15240;SDS011;7723;52.170;9.978;2023-02-01T13:29:22;3.85;;;1.50;;
15240;SDS011;7723;52.170;9.978;2023-02-01T13:31:54;2.88;;;1.83;;
15240;SDS011;7723;52.170;9.978;2023-02-01T13:34:48;11.05;;;1.30;;
15240;SDS011;7723;52.170;9.978;2023-02-01T13:37:59;3.47;;;1.38;;
15240;SDS011;7723;52.170;9.978;2023-02-01T13:40:37;3.10;;;1.35;;
15240;SDS011;7723;52.170;9.978;2023-02-01T13:43:11;5.13;;;1.90;;
15240;SDS011;7723;52.170;9.978;2023-02-01T13:45:44;2.10;;;1.23;;
15240;SDS011;7723;52.170;9.978;2023-02-01T13:48:19;2.45;;;1.17;;
15240;SDS011;7723;52.170;9.978;2023-02-01T13:50:50;3.13;;;1.20;;
15240;SDS011;7723;52.170;9.978;2023-02-01T13:53:26;5.38;;;1.80;;
15240;SDS011;7723;52.170;9.978;2023-02-01T13:55:58;3.50;;;1.45;;
15240;SDS011;7723;52.170;9.978;2023-02-01T13:58:32;4.00;;;1.63;;
15240;SDS011;7723;52.170;9.978;2023-02-01T14:04:01;5.53;;;1.05;;
15240;SDS011;7723;52.170;9.978;2023-02-01T14:06:43;1.73;;;1.13;;
15240;SDS011;7723;52.170;9.978;2023-02-01T14:09:16;1.60;;;0.40;;
15240;SDS011;7723;52.170;9.978;2023-02-01T14:11:46;0.70;;;0.30;;
15240;SDS011;7723;52.170;9.978;2023-02-01T14:17:32;0.40;;;0.20;;
15240;SDS011;7723;52.170;9.978;2023-02-01T14:23:15;0.43;;;0.23;;
15240;SDS011;7723;52.170;9.978;2023-02-01T14:25:57;0.70;;;0.40;;
15240;SDS011;7723;52.170;9.978;2023-02-01T14:28:32;2.00;;;0.73;;
15240;SDS011;7723;52.170;9.978;2023-02-01T14:31:13;3.23;;;1.70;;
15240;SDS011;7723;52.170;9.978;2023-02-01T14:33:44;0.53;;;0.40;;
15240;SDS011;7723;52.170;9.978;2023-02-01T14:36:12;2.13;;;1.93;;
15240;SDS011;7723;52.170;9.978;2023-02-01T14:38:46;1.20;;;1.07;;
15240;SDS011;7723;52.170;9.978;2023-02-01T14:41:26;0.50;;;0.30;;
15240;SDS011;7723;52.170;9.978;2023-02-01T14:44:22;0.97;;;0.40;;
15240;SDS011;7723;52.170;9.978;2023-02-01T14:50:10;0.80;;;0.50;;
15240;SDS011;7723;52.170;9.978;2023-02-01T14:53:02;1.27;;;0.30;;
15240;SDS011;7723;52.170;9.978;2023-02-01T14:55:38;0.53;;;0.20;;
15240;SDS011;7723;52.170;9.978;2023-02-01T14:58:13;1.07;;;0.77;;
15240;SDS011;7723;52.170;9.978;2023-02-01T15:00:47;0.67;;;0.33;;
15240;SDS011;7723;52.170;9.978;2023-02-01T15:03:21;3.17;;;1.00;;
15240;SDS011;7723;52.170;9.978;2023-02-01T15:06:02;1.13;;;0.67;;
15240;SDS011;7723;52.170;9.978;2023-02-01T15:08:32;1.70;;;0.60;;
15240;SDS011;7723;52.170;9.978;2023-02-01T15:11:02;0.47;;;0.47;;
15240;SDS011;7723;52.170;9.978;2023-02-01T15:13:35;1.77;;;0.53;;
15240;SDS011;7723;52.170;9.978;2023-02-01T15:16:03;5.50;;;0.83;;
15240;SDS011;7723;52.170;9.978;2023-02-01T15:18:32;4.60;;;0.93;;
15240;SDS011;7723;52.170;9.978;2023-02-01T15:21:00;1.73;;;0.70;;
15240;SDS011;7723;52.170;9.978;2023-02-01T15:23:30;3.97;;;0.87;;
15240;SDS011;7723;52.170;9.978;2023-02-01T15:25:58;1.97;;;0.50;;
15240;SDS011;7723;52.170;9.978;2023-02-01T15:28:25;2.43;;;0.47;;
15240;SDS011;7723;52.170;9.978;2023-02-01T15:30:54;0.73;;;0.50;;
15240;SDS011;7723;52.170;9.978;2023-02-01T15:33:23;1.20;;;0.50;;
15240;SDS011;7723;52.170;9.978;2023-02-01T15:35:51;3.80;;;0.50;;
15240;SDS011;7723;52.170;9.978;2023-02-01T15:38:33;1.13;;;0.50;;
15240;SDS011;7723;52.170;9.978;2023-02-01T15:41:04;1.57;;;0.70;;
15240;SDS011;7723;52.170;9.978;2023-02-01T15:43:36;2.07;;;0.57;;
15240;SDS011;7723;52.170;9.978;2023-02-01T15:46:07;3.80;;;1.60;;
15240;SDS011;7723;52.170;9.978;2023-02-01T15:48:39;1.83;;;0.80;;